Time,TemperatureF,DewpointF,PressureIn,WindDirection,WindDirectionDegrees,WindSpeedMPH,WindSpeedGustMPH,Humidity,HourlyPrecipIn,Conditions,Clouds,dailyrainin,SolarRadiationWatts/m^2,SoftwareType,DateUTC
2013-09-21 00:03:00,82.0,74.0,-100.00,South,173,5.0,10.0,76,0.00,,,0.08,5.000000,,2013-09-21 05:03:00,
2013-09-21 00:13:00,82.0,74.0,-100.00,South,173,5.0,10.0,76,0.00,,,0.08,5.000000,,2013-09-21 05:13:00,
2013-09-21 00:23:00,82.0,74.0,-100.00,South,173,5.0,10.0,76,0.00,,,0.08,5.000000,,2013-09-21 05:23:00,
2013-09-21 00:53:00,82.0,74.0,-100.00,South,174,4.0,10.0,77,0.00,,,0.08,5.000000,,2013-09-21 05:53:00,
2013-09-21 01:02:00,82.0,74.0,-100.00,South,174,4.0,10.0,77,0.00,,,0.08,5.000000,,2013-09-21 06:02:00,
2013-09-21 01:12:00,82.0,74.0,-100.00,South,174,4.0,10.0,77,0.00,,,0.08,5.000000,,2013-09-21 06:12:00,
2013-09-21 01:22:00,82.0,74.0,-100.00,South,174,4.0,10.0,77,0.00,,,0.08,5.000000,,2013-09-21 06:22:00,
2013-09-21 01:53:00,79.0,74.0,-100.00,South,187,4.0,11.0,85,0.02,,,0.10,5.000000,,2013-09-21 06:53:00,
2013-09-21 02:01:00,79.0,74.0,-100.00,South,187,4.0,11.0,85,0.02,,,0.10,5.000000,,2013-09-21 07:01:00,
2013-09-21 02:11:00,79.0,74.0,-100.00,South,187,4.0,11.0,85,0.02,,,0.10,5.000000,,2013-09-21 07:11:00,
2013-09-21 02:21:00,79.0,74.0,-100.00,South,187,4.0,11.0,85,0.02,,,0.10,5.000000,,2013-09-21 07:21:00,
2013-09-21 02:52:00,80.0,73.0,-100.00,SSW,195,4.0,8.0,79,0.00,,,0.10,5.000000,,2013-09-21 07:52:00,
2013-09-21 03:03:00,80.0,73.0,-100.00,SSW,195,4.0,8.0,79,0.00,,,0.10,5.000000,,2013-09-21 08:03:00,
2013-09-21 03:13:00,80.0,73.0,-100.00,SSW,195,4.0,8.0,79,0.00,,,0.10,5.000000,,2013-09-21 08:13:00,
2013-09-21 03:22:00,80.0,73.0,-100.00,SSW,195,4.0,8.0,79,0.00,,,0.10,5.000000,,2013-09-21 08:22:00,
2013-09-21 03:52:00,81.0,73.0,-100.00,SSW,194,4.0,10.0,78,0.00,,,0.10,6.000000,,2013-09-21 08:52:00,
2013-09-21 04:02:00,81.0,73.0,-100.00,SSW,194,4.0,10.0,78,0.00,,,0.10,6.000000,,2013-09-21 09:02:00,
2013-09-21 04:11:00,81.0,73.0,-100.00,SSW,194,4.0,10.0,78,0.00,,,0.10,6.000000,,2013-09-21 09:11:00,
2013-09-21 04:22:00,81.0,73.0,-100.00,SSW,194,4.0,10.0,78,0.00,,,0.10,6.000000,,2013-09-21 09:22:00,
2013-09-21 04:54:00,81.0,73.0,-100.00,South,189,4.0,8.0,77,0.00,,,0.10,5.000000,,2013-09-21 09:54:00,
2013-09-21 05:03:00,81.0,73.0,-100.00,South,189,4.0,8.0,77,0.00,,,0.10,5.000000,,2013-09-21 10:03:00,
2013-09-21 05:12:00,81.0,73.0,-100.00,South,189,4.0,8.0,77,0.00,,,0.10,5.000000,,2013-09-21 10:12:00,
2013-09-21 05:23:00,81.0,73.0,-100.00,South,189,4.0,8.0,77,0.00,,,0.10,5.000000,,2013-09-21 10:23:00,
2013-09-21 05:52:00,81.0,73.0,-100.00,SSW,212,3.0,9.0,76,0.00,,,0.10,10.000000,,2013-09-21 10:52:00,
2013-09-21 06:03:00,81.0,73.0,-100.00,SSW,212,3.0,9.0,76,0.00,,,0.10,10.000000,,2013-09-21 11:03:00,
2013-09-21 06:11:00,81.0,73.0,-100.00,SSW,212,3.0,9.0,76,0.00,,,0.10,10.000000,,2013-09-21 11:11:00,
2013-09-21 06:23:00,81.0,73.0,-100.00,SSW,212,3.0,9.0,76,0.00,,,0.10,10.000000,,2013-09-21 11:23:00,
2013-09-21 06:52:00,81.0,72.0,-100.00,SSW,199,3.0,7.0,75,0.00,,,0.10,10.000000,,2013-09-21 11:52:00,
2013-09-21 07:02:00,81.0,72.0,-100.00,SSW,199,3.0,7.0,75,0.00,,,0.10,10.000000,,2013-09-21 12:02:00,
2013-09-21 07:12:00,81.0,72.0,-100.00,SSW,199,3.0,7.0,75,0.00,,,0.10,10.000000,,2013-09-21 12:12:00,
2013-09-21 07:21:00,81.0,72.0,-100.00,SSW,199,3.0,7.0,75,0.00,,,0.10,10.000000,,2013-09-21 12:21:00,
2013-09-21 07:52:00,81.0,73.0,-100.00,SSW,197,2.0,6.0,78,0.00,,,0.10,11.000000,,2013-09-21 12:52:00,
2013-09-21 08:02:00,81.0,73.0,-100.00,SSW,197,2.0,6.0,78,0.00,,,0.10,11.000000,,2013-09-21 13:02:00,
2013-09-21 08:11:00,81.0,73.0,-100.00,SSW,197,2.0,6.0,78,0.00,,,0.10,11.000000,,2013-09-21 13:11:00,
2013-09-21 08:21:00,81.0,73.0,-100.00,SSW,197,2.0,6.0,78,0.00,,,0.10,11.000000,,2013-09-21 13:21:00,
2013-09-21 08:53:00,81.0,74.0,-100.00,SW,219,1.0,5.0,79,0.00,,,0.10,34.000000,,2013-09-21 13:53:00,
2013-09-21 09:02:00,81.0,74.0,-100.00,SW,219,1.0,5.0,79,0.00,,,0.10,34.000000,,2013-09-21 14:02:00,
2013-09-21 09:11:00,81.0,74.0,-100.00,SW,219,1.0,5.0,79,0.00,,,0.10,34.000000,,2013-09-21 14:11:00,
2013-09-21 09:22:00,81.0,74.0,-100.00,SW,219,1.0,5.0,79,0.00,,,0.10,34.000000,,2013-09-21 14:22:00,
2013-09-21 09:52:00,79.0,75.0,-100.00,SSW,209,2.0,5.0,88,0.01,,,0.11,33.000000,,2013-09-21 14:52:00,
2013-09-21 10:01:00,79.0,75.0,-100.00,SSW,209,2.0,5.0,88,0.01,,,0.11,33.000000,,2013-09-21 15:01:00,
2013-09-21 10:12:00,79.0,75.0,-100.00,SSW,209,2.0,5.0,88,0.01,,,0.11,33.000000,,2013-09-21 15:12:00,
2013-09-21 10:22:00,79.0,75.0,-100.00,SSW,209,2.0,5.0,88,0.01,,,0.11,33.000000,,2013-09-21 15:22:00,
2013-09-21 10:55:00,78.0,72.0,-100.00,West,267,6.0,13.0,82,0.02,,,0.13,73.000000,,2013-09-21 15:55:00,
2013-09-21 11:05:00,78.0,72.0,-100.00,West,267,6.0,13.0,82,0.02,,,0.13,73.000000,,2013-09-21 16:05:00,
2013-09-21 11:14:00,78.0,72.0,-100.00,West,267,6.0,13.0,82,0.02,,,0.13,73.000000,,2013-09-21 16:14:00,
2013-09-21 11:24:00,78.0,72.0,-100.00,West,267,6.0,13.0,82,0.02,,,0.13,73.000000,,2013-09-21 16:24:00,
2013-09-21 11:54:00,76.0,73.0,-100.00,WSW,253,5.0,13.0,89,0.04,,,0.17,111.000000,,2013-09-21 16:54:00,
2013-09-21 12:03:00,76.0,73.0,-100.00,WSW,253,5.0,13.0,89,0.04,,,0.17,111.000000,,2013-09-21 17:03:00,
2013-09-21 12:12:00,76.0,73.0,-100.00,WSW,253,5.0,13.0,89,0.04,,,0.17,111.000000,,2013-09-21 17:12:00,
2013-09-21 12:23:00,76.0,73.0,-100.00,WSW,253,5.0,13.0,89,0.04,,,0.17,111.000000,,2013-09-21 17:23:00,
2013-09-21 12:52:00,76.0,73.0,-100.00,WSW,256,3.0,11.0,90,0.03,,,0.20,146.000000,,2013-09-21 17:52:00,
2013-09-21 13:02:00,76.0,73.0,-100.00,WSW,256,3.0,11.0,90,0.03,,,0.20,146.000000,,2013-09-21 18:02:00,
2013-09-21 13:12:00,76.0,73.0,-100.00,WSW,256,3.0,11.0,90,0.03,,,0.20,146.000000,,2013-09-21 18:12:00,
2013-09-21 13:22:00,76.0,73.0,-100.00,WSW,256,3.0,11.0,90,0.03,,,0.20,146.000000,,2013-09-21 18:22:00,
2013-09-21 13:52:00,78.0,74.0,-100.00,WSW,249,3.0,8.0,87,0.01,,,0.14,293.000000,,2013-09-21 18:52:00,
2013-09-21 14:02:00,78.0,74.0,-100.00,WSW,249,3.0,8.0,87,0.01,,,0.14,293.000000,,2013-09-21 19:02:00,
2013-09-21 14:11:00,78.0,74.0,-100.00,WSW,249,3.0,8.0,87,0.01,,,0.14,293.000000,,2013-09-21 19:11:00,
2013-09-21 14:22:00,78.0,74.0,-100.00,WSW,249,3.0,8.0,87,0.01,,,0.14,293.000000,,2013-09-21 19:22:00,
2013-09-21 14:52:00,78.0,73.0,-100.00,WSW,258,3.0,9.0,84,0.01,,,0.15,251.000000,,2013-09-21 19:52:00,
2013-09-21 15:02:00,78.0,73.0,-100.00,WSW,258,3.0,9.0,84,0.01,,,0.15,251.000000,,2013-09-21 20:02:00,
2013-09-21 15:12:00,78.0,73.0,-100.00,WSW,258,3.0,9.0,84,0.01,,,0.15,251.000000,,2013-09-21 20:12:00,
2013-09-21 15:22:00,78.0,73.0,-100.00,WSW,258,3.0,9.0,84,0.01,,,0.15,251.000000,,2013-09-21 20:22:00,
2013-09-21 15:52:00,79.0,74.0,-100.00,West,262,3.0,8.0,84,0.00,,,0.15,232.000000,,2013-09-21 20:52:00,
2013-09-21 16:02:00,79.0,74.0,-100.00,West,262,3.0,8.0,84,0.00,,,0.15,232.000000,,2013-09-21 21:02:00,
2013-09-21 16:12:00,79.0,74.0,-100.00,West,262,3.0,8.0,84,0.00,,,0.15,232.000000,,2013-09-21 21:12:00,
2013-09-21 16:22:00,79.0,74.0,-100.00,West,262,3.0,8.0,84,0.00,,,0.15,232.000000,,2013-09-21 21:22:00,
2013-09-21 16:54:00,78.0,72.0,-100.00,West,264,4.0,9.0,83,0.00,,,0.14,172.000000,,2013-09-21 21:54:00,
2013-09-21 17:05:00,78.0,72.0,-100.00,West,264,4.0,9.0,83,0.00,,,0.14,172.000000,,2013-09-21 22:05:00,
2013-09-21 17:14:00,78.0,72.0,-100.00,West,264,4.0,9.0,83,0.00,,,0.14,172.000000,,2013-09-21 22:14:00,
2013-09-21 17:23:00,78.0,72.0,-100.00,West,264,4.0,9.0,83,0.00,,,0.14,172.000000,,2013-09-21 22:23:00,
2013-09-21 17:53:00,77.0,72.0,-100.00,WNW,300,3.0,6.0,84,0.00,,,0.14,89.000000,,2013-09-21 22:53:00,
2013-09-21 18:03:00,77.0,72.0,-100.00,WNW,300,3.0,6.0,84,0.00,,,0.14,89.000000,,2013-09-21 23:03:00,
2013-09-21 18:13:00,77.0,72.0,-100.00,WNW,300,3.0,6.0,84,0.00,,,0.14,89.000000,,2013-09-21 23:13:00,
2013-09-21 18:23:00,77.0,72.0,-100.00,WNW,300,3.0,6.0,84,0.00,,,0.14,89.000000,,2013-09-21 23:23:00,
2013-09-21 18:53:00,76.0,73.0,-100.00,NW,319,0.0,5.0,90,0.02,,,0.16,28.000000,,2013-09-21 23:53:00,
2013-09-21 19:02:00,76.0,73.0,-100.00,NW,319,0.0,5.0,90,0.02,,,0.16,28.000000,,2013-09-22 00:02:00,
2013-09-21 19:12:00,76.0,73.0,-100.00,NW,319,0.0,5.0,90,0.02,,,0.16,28.000000,,2013-09-22 00:12:00,
2013-09-21 19:22:00,76.0,73.0,-100.00,NW,319,0.0,5.0,90,0.02,,,0.16,28.000000,,2013-09-22 00:22:00,
2013-09-21 19:52:00,75.0,72.0,-100.00,West,273,0.0,0.0,91,0.01,,,0.17,13.000000,,2013-09-22 00:52:00,
2013-09-21 20:02:00,75.0,72.0,-100.00,West,273,0.0,0.0,91,0.01,,,0.17,13.000000,,2013-09-22 01:02:00,
2013-09-21 20:12:00,75.0,72.0,-100.00,West,273,0.0,0.0,91,0.01,,,0.17,13.000000,,2013-09-22 01:12:00,
2013-09-21 20:21:00,75.0,72.0,-100.00,West,273,0.0,0.0,91,0.01,,,0.17,13.000000,,2013-09-22 01:21:00,
2013-09-21 20:52:00,75.0,73.0,-100.00,South,180,0.0,0.0,92,0.00,,,0.17,11.000000,,2013-09-22 01:52:00,
2013-09-21 21:02:00,75.0,73.0,-100.00,South,180,0.0,0.0,92,0.00,,,0.17,11.000000,,2013-09-22 02:02:00,
2013-09-21 21:12:00,75.0,73.0,-100.00,South,180,0.0,0.0,92,0.00,,,0.17,11.000000,,2013-09-22 02:12:00,
2013-09-21 21:22:00,75.0,73.0,-100.00,South,180,0.0,0.0,92,0.00,,,0.17,11.000000,,2013-09-22 02:22:00,
2013-09-21 21:52:00,75.0,73.0,-100.00,NNE,12,0.0,0.0,92,0.00,,,0.17,11.000000,,2013-09-22 02:52:00,
2013-09-21 22:02:00,75.0,73.0,-100.00,NNE,12,0.0,0.0,92,0.00,,,0.17,11.000000,,2013-09-22 03:02:00,
2013-09-21 22:12:00,75.0,73.0,-100.00,NNE,12,0.0,0.0,92,0.00,,,0.17,11.000000,,2013-09-22 03:12:00,
2013-09-21 22:22:00,75.0,73.0,-100.00,NNE,12,0.0,0.0,92,0.00,,,0.17,11.000000,,2013-09-22 03:22:00,
2013-09-21 22:54:00,74.0,72.0,-100.00,NNW,346,3.0,6.0,92,0.00,,,0.17,11.000000,,2013-09-22 03:54:00,
2013-09-21 23:02:00,-999.0,-99.9,-100.00,NNW,346,3.0,6.0,-999,-99.99,,,-99.99,11.000000,,2013-09-22 04:02:00,
2013-09-21 23:14:00,74.0,72.0,-100.00,NNW,346,3.0,6.0,92,0.00,,,0.17,11.000000,,2013-09-22 04:14:00,
2013-09-21 23:23:00,74.0,72.0,-100.00,NNW,346,3.0,6.0,92,0.00,,,0.17,11.000000,,2013-09-22 04:23:00,
2013-09-21 23:54:00,73.0,70.0,-100.00,NNE,23,2.0,6.0,91,0.00,,,0.17,11.000000,,2013-09-22 04:54:00,